Time;durP1;ratioP1;P1;durP2;ratioP2;P2;SDS_P1;SDS_P2;PMS_P1;PMS_P2;Temp;Humidity;BMP_temperature;BMP_pressure;BME280_temperature;BME280_humidity;BME280_pressure;Samples;Min_cycle;Max_cycle;Signal;HPM_P1;HPM_P2
2022/02/11 00:04:41;;;;;;;;;;;3.10;94.30;;;;;;5087658;28;20293;-75
2022/02/11 00:07:01;;;;;;;;;;;3.00;94.40;;;;;;5086365;28;20340;-73
2022/02/11 00:09:26;;;;;;;;;;;3.00;94.40;;;;;;5086630;28;20351;-73
2022/02/11 00:11:53;;;;;;;;;;;3.00;94.40;;;;;;5091123;28;19992;-74
2022/02/11 00:14:18;;;;;;;;;;;3.00;94.50;;;;;;5091362;28;19914;-74
2022/02/11 00:16:44;;;;;;;;;;;3.00;94.50;;;;;;5090929;28;19916;-74
2022/02/11 00:19:09;;;;;;;;;;;3.00;94.50;;;;;;5089983;28;19912;-74
2022/02/11 00:21:35;;;;;;;;;;;3.00;94.50;;;;;;5091151;28;19939;-74
2022/02/11 00:24:01;;;;;;;;;;;3.00;94.60;;;;;;5091090;28;19957;-75
2022/02/11 00:26:32;;;;;;;;;;;3.00;94.60;;;;;;5091045;28;19995;-74
2022/02/11 00:34:37;;;;;;;;;;;3.00;94.70;;;;;;5090053;28;19938;-74
2022/02/11 00:37:13;;;;;;;;;;;3.00;94.80;;;;;;5090799;28;19912;-74
2022/02/11 00:43:25;;;;;;;;;;;3.00;94.90;;;;;;5091141;28;19953;-74
2022/02/11 01:04:12;;;;;;;;;;;3.20;95.30;;;;;;5090590;28;19939;-74
2022/02/11 01:06:38;;;;;;;;;;;3.20;95.20;;;;;;5088864;28;19912;-74
2022/02/11 01:09:04;;;;;;;;;;;3.20;95.20;;;;;;5090231;28;19916;-74
2022/02/11 01:13:55;;;;;;;;;;;3.10;95.20;;;;;;5090516;28;19922;-74
2022/02/11 01:16:28;;;;;;;;;;;3.10;95.20;;;;;;5090027;28;19923;-74
2022/02/11 01:19:04;;;;;;;;;;;3.10;95.20;;;;;;5089929;28;19913;-74
2022/02/11 01:21:39;;;;;;;;;;;3.10;95.30;;;;;;5089231;28;19932;-74
2022/02/11 01:24:25;;;;;;;;;;;3.10;95.30;;;;;;5088750;28;20015;-75
2022/02/11 01:27:14;;;;;;;;;;;3.10;95.30;;;;;;5089888;28;19944;-74
2022/02/11 01:32:22;;;;;;;;;;;3.00;95.30;;;;;;5089847;28;20010;-74
2022/02/11 01:51:28;;;;;;;;;;;2.90;95.40;;;;;;5089776;28;19965;-74
2022/02/11 02:15:02;;;;;;;;;;;2.90;95.50;;;;;;5089120;28;19986;-75
2022/02/11 02:26:15;;;;;;;;;;;2.90;95.70;;;;;;5072385;28;20457;-74
2022/02/11 02:39:21;;;;;;;;;;;2.90;95.80;;;;;;5089091;28;19919;-74
2022/02/11 02:50:35;;;;;;;;;;;2.80;95.80;;;;;;5088767;28;19969;-74
2022/02/11 02:56:40;;;;;;;;;;;2.80;96.00;;;;;;5088767;28;19918;-73
2022/02/11 02:58:44;;;;;;;;;;;2.80;96.10;;;;;;5088328;28;19936;-74
2022/02/11 04:55:29;;;;;;;;;;;2.20;96.10;;;;;;5090347;28;19919;-73
2022/02/11 05:00:39;;;;;;;;;;;2.20;96.10;;;;;;5090665;28;20008;-74
2022/02/11 05:03:05;;;;;;;;;;;2.20;96.10;;;;;;5090303;28;20292;-73
2022/02/11 05:05:48;;;;;;;;;;;2.20;96.20;;;;;;5088732;28;19927;-74
2022/02/11 05:08:26;;;;;;;;;;;2.30;96.20;;;;;;5090072;28;19923;-73
2022/02/11 05:10:54;;;;;;;;;;;2.30;96.20;;;;;;5090283;28;19912;-75
2022/02/11 05:13:19;;;;;;;;;;;2.30;96.20;;;;;;5090584;28;19919;-74
2022/02/11 05:15:45;;;;;;;;;;;2.30;96.20;;;;;;5071882;28;19916;-75
2022/02/11 05:18:11;;;;;;;;;;;2.30;96.20;;;;;;5090027;28;19908;-74
2022/02/11 05:20:37;;;;;;;;;;;2.30;96.20;;;;;;5090051;28;20470;-74
2022/02/11 05:23:06;;;;;;;;;;;2.40;96.20;;;;;;5090102;28;19948;-75
2022/02/11 05:25:33;;;;;;;;;;;2.40;96.10;;;;;;5088586;28;19952;-74
2022/02/11 05:27:58;;;;;;;;;;;2.40;96.10;;;;;;5089823;28;20002;-75
2022/02/11 05:30:24;;;;;;;;;;;2.40;96.00;;;;;;5089809;28;20328;-74
2022/02/11 05:32:49;;;;;;;;;;;2.40;96.00;;;;;;5088457;28;19919;-74
2022/02/11 05:35:15;;;;;;;;;;;2.40;96.00;;;;;;5089953;28;19912;-74
2022/02/11 05:37:40;;;;;;;;;;;2.40;96.00;;;;;;5089716;28;20632;-74
2022/02/11 05:40:06;;;;;;;;;;;2.40;95.90;;;;;;5089730;28;19912;-74
2022/02/11 05:42:32;;;;;;;;;;;2.40;96.00;;;;;;5089629;28;19970;-74
2022/02/11 05:44:57;;;;;;;;;;;2.40;96.00;;;;;;5089571;28;19958;-75
2022/02/11 05:47:23;;;;;;;;;;;2.40;96.10;;;;;;5089540;28;19912;-74
2022/02/11 05:49:48;;;;;;;;;;;2.40;96.00;;;;;;5088206;28;20099;-74
2022/02/11 05:52:14;;;;;;;;;;;2.40;96.00;;;;;;5089586;28;19947;-73
2022/02/11 05:54:40;;;;;;;;;;;2.40;96.00;;;;;;5088217;28;19916;-74
2022/02/11 05:57:05;;;;;;;;;;;2.40;96.00;;;;;;5089248;28;19973;-73
2022/02/11 05:59:31;;;;;;;;;;;2.30;96.10;;;;;;5089236;28;19972;-74
2022/02/11 06:01:56;;;;;;;;;;;2.30;96.10;;;;;;5089322;28;20369;-73
2022/02/11 06:04:24;;;;;;;;;;;2.30;96.20;;;;;;5088150;28;19920;-74
2022/02/11 06:06:50;;;;;;;;;;;2.30;96.30;;;;;;5089194;28;20287;-74
2022/02/11 06:09:16;;;;;;;;;;;2.20;96.30;;;;;;5088704;28;19954;-74
2022/02/11 06:11:41;;;;;;;;;;;2.20;96.40;;;;;;5087676;28;19912;-73
2022/02/11 06:14:07;;;;;;;;;;;2.20;96.40;;;;;;5088935;28;19955;-75
2022/02/11 06:16:32;;;;;;;;;;;2.20;96.50;;;;;;5088827;28;19952;-74
2022/02/11 06:18:58;;;;;;;;;;;2.20;96.50;;;;;;5088947;28;19916;-74
2022/02/11 06:21:23;;;;;;;;;;;2.30;96.60;;;;;;5088829;28;19959;-73
2022/02/11 06:23:55;;;;;;;;;;;2.30;96.60;;;;;;5089053;28;19981;-74
2022/02/11 06:26:24;;;;;;;;;;;2.30;96.60;;;;;;5089183;28;19951;-74
2022/02/11 06:28:50;;;;;;;;;;;2.30;96.60;;;;;;5088549;28;19912;-73
2022/02/11 06:31:16;;;;;;;;;;;2.30;96.70;;;;;;5088432;28;19966;-74
2022/02/11 06:33:42;;;;;;;;;;;2.40;96.80;;;;;;5087221;28;19947;-74
2022/02/11 06:36:07;;;;;;;;;;;2.40;96.80;;;;;;5088459;28;19952;-73
2022/02/11 06:38:33;;;;;;;;;;;2.40;96.70;;;;;;5088525;28;19916;-74
2022/02/11 06:40:58;;;;;;;;;;;2.40;96.70;;;;;;5088624;28;19912;-75
2022/02/11 06:43:24;;;;;;;;;;;2.40;96.70;;;;;;5088415;28;19915;-74
2022/02/11 06:45:50;;;;;;;;;;;2.40;96.80;;;;;;5088369;28;19919;-74
2022/02/11 06:48:19;;;;;;;;;;;2.40;96.80;;;;;;5088268;28;19916;-74
2022/02/11 06:50:47;;;;;;;;;;;2.40;96.80;;;;;;5088370;28;19934;-74
2022/02/11 06:53:13;;;;;;;;;;;2.40;96.90;;;;;;5088064;28;19923;-73
2022/02/11 06:55:39;;;;;;;;;;;2.40;96.80;;;;;;5086766;28;20350;-75
2022/02/11 06:58:04;;;;;;;;;;;2.50;96.90;;;;;;5088501;28;20041;-75
2022/02/11 07:00:30;;;;;;;;;;;2.50;96.80;;;;;;5088184;28;19922;-74
2022/02/11 07:02:55;;;;;;;;;;;2.50;96.80;;;;;;5088242;28;19923;-74
2022/02/11 07:05:21;;;;;;;;;;;2.50;96.80;;;;;;5086937;28;20016;-74
2022/02/11 07:07:50;;;;;;;;;;;2.50;96.80;;;;;;5088153;28;19919;-74
2022/02/11 07:10:15;;;;;;;;;;;2.50;96.80;;;;;;5088010;28;19978;-74
2022/02/11 07:12:41;;;;;;;;;;;2.50;96.70;;;;;;5088373;28;20358;-74
2022/02/11 07:15:07;;;;;;;;;;;2.50;96.70;;;;;;5086864;28;20358;-74
2022/02/11 07:17:33;;;;;;;;;;;2.50;96.70;;;;;;5088005;28;19915;-74
2022/02/11 07:19:59;;;;;;;;;;;2.50;96.70;;;;;;5089431;28;19981;-74
2022/02/11 07:22:24;;;;;;;;;;;2.50;96.70;;;;;;5090970;28;19920;-74
2022/02/11 07:24:53;;;;;;;;;;;2.60;96.70;;;;;;5092472;28;19912;-74
2022/02/11 07:27:19;;;;;;;;;;;2.60;96.70;;;;;;5090548;28;20361;-75
2022/02/11 07:29:44;;;;;;;;;;;2.60;96.70;;;;;;5091659;28;19969;-73
2022/02/11 07:32:10;;;;;;;;;;;2.60;96.70;;;;;;5092343;28;19916;-74
2022/02/11 07:34:37;;;;;;;;;;;2.60;96.70;;;;;;5093560;28;19947;-74
2022/02/11 07:37:03;;;;;;;;;;;2.60;96.60;;;;;;5092419;28;19958;-75
2022/02/11 07:39:30;;;;;;;;;;;2.60;96.60;;;;;;5091795;28;20010;-74
2022/02/11 07:41:56;;;;;;;;;;;2.70;96.70;;;;;;5091845;28;19967;-74
2022/02/11 07:44:22;;;;;;;;;;;2.70;96.60;;;;;;5091700;28;20353;-74
2022/02/11 07:46:48;;;;;;;;;;;2.70;96.60;;;;;;5091410;28;19945;-74
2022/02/11 07:49:14;;;;;;;;;;;2.80;96.60;;;;;;5091740;28;19916;-73
2022/02/11 07:51:39;;;;;;;;;;;2.80;96.50;;;;;;5091720;28;19912;-74
2022/02/11 07:54:05;;;;;;;;;;;2.80;96.70;;;;;;5091210;28;20378;-75
2022/02/11 07:56:31;;;;;;;;;;;2.80;96.50;;;;;;5091193;28;20049;-75
2022/02/11 07:58:56;;;;;;;;;;;2.80;96.50;;;;;;5090863;28;19955;-75
2022/02/11 08:01:22;;;;;;;;;;;2.90;96.50;;;;;;5091220;28;20347;-73
2022/02/11 08:03:49;;;;;;;;;;;2.90;96.50;;;;;;5091368;28;19935;-74
2022/02/11 08:06:14;;;;;;;;;;;3.00;96.60;;;;;;5089866;28;19908;-74
2022/02/11 08:08:40;;;;;;;;;;;3.00;96.60;;;;;;5090845;28;19920;-73
2022/02/11 08:11:05;;;;;;;;;;;3.00;96.60;;;;;;5091057;28;19973;-74
2022/02/11 08:13:32;;;;;;;;;;;3.10;96.60;;;;;;5089683;28;20474;-75
2022/02/11 08:15:58;;;;;;;;;;;3.10;96.60;;;;;;5089752;28;19916;-74
2022/02/11 08:18:23;;;;;;;;;;;3.20;96.70;;;;;;5091152;28;19919;-75
2022/02/11 08:20:49;;;;;;;;;;;3.30;96.70;;;;;;5090938;28;19913;-75
2022/02/11 08:23:15;;;;;;;;;;;3.30;96.70;;;;;;5091179;28;19947;-72
2022/02/11 08:25:40;;;;;;;;;;;3.50;96.80;;;;;;5090617;28;19965;-71
2022/02/11 08:28:06;;;;;;;;;;;3.60;96.80;;;;;;5090750;28;20362;-72
2022/02/11 08:30:31;;;;;;;;;;;3.70;96.80;;;;;;5088373;28;19967;-74
2022/02/11 08:32:57;;;;;;;;;;;3.80;96.70;;;;;;5089066;28;19912;-73
2022/02/11 08:35:22;;;;;;;;;;;3.90;96.70;;;;;;5090652;28;19955;-73
2022/02/11 08:37:48;;;;;;;;;;;4.00;96.70;;;;;;5089469;28;19919;-73
2022/02/11 08:40:14;;;;;;;;;;;4.10;96.70;;;;;;5090474;28;19973;-73
2022/02/11 08:42:39;;;;;;;;;;;4.30;96.70;;;;;;5090436;28;19912;-73
2022/02/11 08:45:07;;;;;;;;;;;4.40;96.70;;;;;;5089149;28;20374;-73
2022/02/11 08:47:32;;;;;;;;;;;4.50;96.70;;;;;;5090414;28;19920;-74
2022/02/11 08:50:00;;;;;;;;;;;4.60;96.70;;;;;;5088634;28;20322;-74
2022/02/11 08:52:27;;;;;;;;;;;4.70;96.60;;;;;;5089852;28;19912;-72
2022/02/11 08:54:56;;;;;;;;;;;4.80;96.60;;;;;;5088016;28;20378;-74
2022/02/11 08:57:21;;;;;;;;;;;4.90;96.50;;;;;;5089804;28;19908;-73
2022/02/11 08:59:47;;;;;;;;;;;5.00;96.60;;;;;;5088338;28;19912;-73
2022/02/11 09:02:14;;;;;;;;;;;5.10;96.60;;;;;;5087725;28;19912;-74
2022/02/11 09:04:40;;;;;;;;;;;5.10;96.50;;;;;;5087543;28;19957;-73
2022/02/11 09:07:06;;;;;;;;;;;5.20;96.50;;;;;;5089151;28;19912;-74
2022/02/11 09:09:32;;;;;;;;;;;5.30;96.60;;;;;;5089130;28;20021;-73
2022/02/11 09:11:58;;;;;;;;;;;5.40;96.60;;;;;;5087846;28;19952;-74
2022/02/11 09:14:23;;;;;;;;;;;5.60;96.60;;;;;;5087996;28;19964;-73
2022/02/11 09:16:49;;;;;;;;;;;5.60;96.60;;;;;;5088905;28;19963;-75
2022/02/11 09:19:14;;;;;;;;;;;5.80;96.50;;;;;;5088816;28;19915;-74
2022/02/11 09:21:40;;;;;;;;;;;5.90;96.50;;;;;;5089293;28;20269;-73
2022/02/11 09:24:06;;;;;;;;;;;6.00;96.50;;;;;;5088219;28;20354;-76
2022/02/11 09:26:33;;;;;;;;;;;6.10;96.40;;;;;;5089405;28;19919;-73
2022/02/11 09:29:00;;;;;;;;;;;6.20;96.30;;;;;;5089269;28;20017;-73
2022/02/11 09:31:27;;;;;;;;;;;6.20;96.30;;;;;;5087563;28;19924;-73
2022/02/11 09:34:03;;;;;;;;;;;6.30;96.30;;;;;;5089398;28;19912;-72
2022/02/11 09:36:29;;;;;;;;;;;6.40;96.40;;;;;;5087580;28;19916;-74
2022/02/11 09:38:55;;;;;;;;;;;6.60;96.40;;;;;;5088676;28;19908;-71
2022/02/11 09:41:22;;;;;;;;;;;6.70;96.40;;;;;;5088814;28;19909;-72
2022/02/11 09:43:48;;;;;;;;;;;7.00;96.50;;;;;;5088360;28;19956;-73
2022/02/11 09:46:15;;;;;;;;;;;7.30;96.50;;;;;;5087409;28;19977;-74
2022/02/11 09:48:40;;;;;;;;;;;7.50;96.50;;;;;;5088654;28;20378;-74
2022/02/11 09:51:06;;;;;;;;;;;7.80;96.50;;;;;;5088738;28;19965;-74
2022/02/11 09:53:32;;;;;;;;;;;8.10;96.40;;;;;;5089022;28;20259;-74
2022/02/11 09:55:57;;;;;;;;;;;8.50;96.40;;;;;;5087551;28;19931;-74
2022/02/11 09:58:23;;;;;;;;;;;8.80;96.10;;;;;;5086882;28;19908;-73
2022/02/11 10:00:49;;;;;;;;;;;8.90;95.90;;;;;;5086706;28;19918;-73
2022/02/11 10:03:19;;;;;;;;;;;9.10;95.80;;;;;;5088476;28;19912;-73
2022/02/11 10:05:47;;;;;;;;;;;9.20;95.70;;;;;;5088575;28;19908;-74
2022/02/11 10:08:14;;;;;;;;;;;9.40;95.90;;;;;;5088277;28;19912;-73
2022/02/11 10:10:39;;;;;;;;;;;9.70;96.00;;;;;;5088378;28;19908;-74
2022/02/11 10:13:12;;;;;;;;;;;9.90;95.80;;;;;;5088564;28;19912;-74
2022/02/11 10:15:40;;;;;;;;;;;10.10;95.70;;;;;;5089147;28;19915;-73
2022/02/11 10:18:06;;;;;;;;;;;10.20;95.00;;;;;;5088152;28;20358;-73
2022/02/11 10:20:50;;;;;;;;;;;10.10;94.80;;;;;;5089377;28;19917;-73
2022/02/11 10:23:20;;;;;;;;;;;9.90;94.70;;;;;;5088373;28;19969;-74
2022/02/11 10:26:14;;;;;;;;;;;9.80;94.30;;;;;;5089678;28;19912;-73
2022/02/11 10:28:39;;;;;;;;;;;9.60;94.20;;;;;;5067784;28;19916;-73
2022/02/11 10:31:13;;;;;;;;;;;9.50;94.30;;;;;;5068833;28;19924;-74
2022/02/11 10:33:59;;;;;;;;;;;9.50;94.10;;;;;;5069097;28;19908;-73
2022/02/11 10:36:39;;;;;;;;;;;9.50;94.30;;;;;;5067778;28;20350;-74
2022/02/11 10:39:27;;;;;;;;;;;9.50;94.30;;;;;;5067394;28;19934;-74
2022/02/11 10:41:54;;;;;;;;;;;9.60;94.00;;;;;;5067549;28;19912;-74
2022/02/11 10:44:22;;;;;;;;;;;9.70;94.20;;;;;;5068748;28;20008;-74
2022/02/11 10:46:51;;;;;;;;;;;9.80;94.10;;;;;;5072955;28;20517;-74
2022/02/11 10:49:19;;;;;;;;;;;9.80;94.30;;;;;;5087479;28;19938;-74
2022/02/11 10:52:47;;;;;;;;;;;9.80;94.10;;;;;;5086729;28;19916;-74
2022/02/11 10:54:57;;;;;;;;;;;9.90;94.10;;;;;;5074266;28;19914;-73
2022/02/11 10:57:25;;;;;;;;;;;9.90;93.90;;;;;;5088159;28;19908;-75
2022/02/11 10:59:51;;;;;;;;;;;9.90;93.70;;;;;;5085827;28;19908;-74
2022/02/11 11:02:18;;;;;;;;;;;9.90;93.70;;;;;;5088645;28;19961;-74
2022/02/11 11:04:47;;;;;;;;;;;9.90;93.50;;;;;;5088344;28;19916;-74
2022/02/11 11:07:15;;;;;;;;;;;9.80;93.30;;;;;;5088660;28;19918;-75
2022/02/11 11:09:45;;;;;;;;;;;9.80;93.30;;;;;;5088596;28;19912;-75
2022/02/11 11:12:13;;;;;;;;;;;9.70;93.20;;;;;;5082198;28;20297;-76
2022/02/11 11:14:40;;;;;;;;;;;9.70;92.90;;;;;;5090494;28;19912;-76
2022/02/11 11:17:05;;;;;;;;;;;9.60;92.70;;;;;;5088550;28;19934;-74
2022/02/11 11:19:32;;;;;;;;;;;9.60;92.70;;;;;;5089762;28;19912;-76
2022/02/11 11:22:16;;;;;;;;;;;9.70;92.70;;;;;;5089377;28;20262;-73
2022/02/11 11:24:47;;;;;;;;;;;9.80;92.70;;;;;;5089428;28;20032;-76
2022/02/11 11:27:13;;;;;;;;;;;10.10;92.80;;;;;;5080112;28;19976;-77
2022/02/11 11:29:39;;;;;;;;;;;10.50;92.80;;;;;;5088335;28;20003;-75
2022/02/11 11:32:05;;;;;;;;;;;11.10;93.10;;;;;;5089749;28;19948;-75
2022/02/11 11:34:34;;;;;;;;;;;11.80;92.80;;;;;;5090207;28;20003;-74
2022/02/11 11:37:05;;;;;;;;;;;12.40;91.90;;;;;;5088000;28;19915;-74
2022/02/11 11:39:30;;;;;;;;;;;12.80;92.20;;;;;;5089266;28;19908;-77
2022/02/11 11:42:05;;;;;;;;;;;13.20;91.00;;;;;;5089177;28;20417;-73
2022/02/11 11:44:40;;;;;;;;;;;13.40;90.00;;;;;;5089020;28;20003;-74
2022/02/11 11:47:05;;;;;;;;;;;13.80;89.70;;;;;;5088043;28;19955;-73
2022/02/11 11:49:41;;;;;;;;;;;14.00;88.20;;;;;;5087720;28;19923;-74
2022/02/11 11:52:09;;;;;;;;;;;14.20;86.90;;;;;;5087890;28;19968;-74
2022/02/11 11:54:35;;;;;;;;;;;14.30;86.80;;;;;;5087637;28;19916;-75
2022/02/11 11:57:00;;;;;;;;;;;14.40;86.20;;;;;;5087134;28;19915;-73
2022/02/11 11:59:41;;;;;;;;;;;14.40;84.90;;;;;;5086502;28;19997;-73
2022/02/11 12:02:20;;;;;;;;;;;14.50;84.70;;;;;;5087516;28;19919;-74
2022/02/11 12:04:48;;;;;;;;;;;14.50;83.50;;;;;;5086011;28;19912;-74
2022/02/11 12:07:34;;;;;;;;;;;14.60;84.00;;;;;;5090811;28;20418;-75
2022/02/11 12:10:01;;;;;;;;;;;14.60;83.50;;;;;;5090854;28;19924;-75
2022/02/11 12:12:28;;;;;;;;;;;14.40;82.30;;;;;;5091176;28;19908;-74
2022/02/11 12:15:17;;;;;;;;;;;14.30;83.60;;;;;;5091101;28;19908;-73
2022/02/11 12:17:43;;;;;;;;;;;14.40;83.40;;;;;;5089367;28;20377;-73
2022/02/11 12:20:09;;;;;;;;;;;14.50;83.20;;;;;;5091100;28;19908;-75
2022/02/11 12:22:35;;;;;;;;;;;14.50;82.30;;;;;;5089560;28;19923;-75
2022/02/11 12:27:46;;;;;;;;;;;14.30;81.40;;;;;;5090947;28;20000;-73
2022/02/11 12:30:15;;;;;;;;;;;14.20;81.80;;;;;;5085392;28;19919;-75
2022/02/11 12:32:43;;;;;;;;;;;14.30;81.10;;;;;;5090761;28;20366;-74
2022/02/11 12:35:09;;;;;;;;;;;14.40;81.30;;;;;;5090300;28;19916;-76
2022/02/11 12:37:35;;;;;;;;;;;14.70;80.50;;;;;;5090865;28;20441;-74
2022/02/11 12:40:03;;;;;;;;;;;15.00;80.70;;;;;;5089256;28;19918;-74
2022/02/11 12:42:30;;;;;;;;;;;15.10;78.50;;;;;;5090887;28;19943;-75
2022/02/11 12:44:56;;;;;;;;;;;15.00;76.20;;;;;;5090982;28;20350;-74
2022/02/11 12:47:22;;;;;;;;;;;14.90;76.10;;;;;;5089937;28;19973;-76
2022/02/11 12:49:49;;;;;;;;;;;14.90;76.10;;;;;;5089577;28;20362;-73
2022/02/11 12:52:17;;;;;;;;;;;14.80;75.20;;;;;;5089767;28;19935;-74
2022/02/11 12:54:55;;;;;;;;;;;14.60;73.50;;;;;;5091458;28;19919;-75
2022/02/11 12:57:21;;;;;;;;;;;14.10;73.70;;;;;;5086097;28;19916;-75
2022/02/11 12:59:50;;;;;;;;;;;14.00;75.50;;;;;;5091122;28;20242;-74
2022/02/11 13:02:35;;;;;;;;;;;14.00;76.40;;;;;;5090383;28;20307;-76
2022/02/11 13:05:02;;;;;;;;;;;14.10;76.50;;;;;;5086261;28;19915;-74
2022/02/11 13:07:27;;;;;;;;;;;14.10;75.50;;;;;;5090515;28;20027;-73
2022/02/11 13:09:53;;;;;;;;;;;14.20;75.00;;;;;;5090472;28;20032;-73
2022/02/11 13:12:18;;;;;;;;;;;14.10;74.00;;;;;;5089089;28;19912;-76
2022/02/11 13:14:44;;;;;;;;;;;14.20;74.70;;;;;;5090228;28;20370;-73
2022/02/11 13:17:09;;;;;;;;;;;14.10;74.80;;;;;;5088098;28;19917;-73
2022/02/11 13:19:35;;;;;;;;;;;14.00;74.60;;;;;;5087915;28;20288;-75
2022/02/11 13:22:13;;;;;;;;;;;14.00;75.20;;;;;;5088880;28;19912;-74
2022/02/11 13:24:39;;;;;;;;;;;13.90;75.50;;;;;;5072478;28;20388;-72
2022/02/11 13:27:04;;;;;;;;;;;14.00;76.00;;;;;;5089374;28;19920;-74
2022/02/11 13:29:30;;;;;;;;;;;14.00;75.70;;;;;;5085093;28;19916;-73
2022/02/11 13:31:57;;;;;;;;;;;14.10;76.10;;;;;;5089379;28;19920;-73
2022/02/11 13:34:23;;;;;;;;;;;14.20;75.80;;;;;;5089725;28;19945;-73
2022/02/11 13:36:48;;;;;;;;;;;14.30;76.60;;;;;;5089603;28;19916;-75
2022/02/11 13:39:28;;;;;;;;;;;14.30;76.50;;;;;;5090414;28;20424;-75
2022/02/11 13:41:54;;;;;;;;;;;14.50;76.40;;;;;;5088994;28;20304;-74
2022/02/11 13:44:22;;;;;;;;;;;14.40;75.90;;;;;;5088046;28;20447;-74
2022/02/11 13:46:52;;;;;;;;;;;14.30;74.80;;;;;;5090118;28;19919;-74
2022/02/11 13:49:17;;;;;;;;;;;13.90;72.20;;;;;;5090378;28;19912;-75
2022/02/11 13:51:43;;;;;;;;;;;13.40;72.00;;;;;;5088685;28;19920;-75
2022/02/11 13:54:10;;;;;;;;;;;13.00;73.10;;;;;;5089567;28;19912;-74
2022/02/11 13:56:38;;;;;;;;;;;12.90;74.10;;;;;;5089404;28;20418;-74
2022/02/11 13:59:06;;;;;;;;;;;12.70;73.90;;;;;;5088350;28;19965;-75
2022/02/11 14:01:33;;;;;;;;;;;12.60;74.10;;;;;;5089792;28;19990;-73
2022/02/11 14:03:59;;;;;;;;;;;12.40;74.30;;;;;;5089432;28;19908;-75
2022/02/11 14:06:25;;;;;;;;;;;12.20;74.60;;;;;;5089213;28;19923;-75
2022/02/11 14:08:51;;;;;;;;;;;12.00;74.50;;;;;;5089442;28;20021;-73
2022/02/11 14:11:19;;;;;;;;;;;11.80;74.50;;;;;;5088579;28;19912;-75
2022/02/11 14:13:45;;;;;;;;;;;11.60;74.80;;;;;;5089080;28;20402;-73
2022/02/11 14:16:11;;;;;;;;;;;11.50;74.40;;;;;;5089622;28;19915;-73
2022/02/11 14:18:41;;;;;;;;;;;11.30;74.70;;;;;;5089456;28;19908;-73
2022/02/11 14:21:10;;;;;;;;;;;11.20;75.10;;;;;;5089425;28;19912;-73
2022/02/11 14:23:35;;;;;;;;;;;11.10;75.30;;;;;;5089273;28;19912;-74
2022/02/11 14:26:01;;;;;;;;;;;11.00;75.90;;;;;;5087241;28;19912;-72
2022/02/11 14:28:29;;;;;;;;;;;11.10;76.30;;;;;;5088992;28;19916;-73
2022/02/11 14:30:55;;;;;;;;;;;11.10;76.40;;;;;;5088884;28;20559;-71
2022/02/11 14:33:21;;;;;;;;;;;11.10;76.50;;;;;;5088378;28;19999;-73
2022/02/11 14:35:46;;;;;;;;;;;11.20;76.70;;;;;;5088839;28;19916;-75
2022/02/11 14:38:12;;;;;;;;;;;11.20;76.60;;;;;;5088431;28;19997;-73
2022/02/11 14:41:45;;;;;;;;;;;11.20;76.90;;;;;;5087675;28;20010;-74
2022/02/11 14:43:25;;;;;;;;;;;11.10;77.00;;;;;;5087287;28;19912;-73
2022/02/11 14:45:54;;;;;;;;;;;11.10;77.30;;;;;;5086543;28;19908;-73
2022/02/11 14:48:23;;;;;;;;;;;11.20;77.50;;;;;;5088987;28;19920;-69
2022/02/11 14:50:49;;;;;;;;;;;11.10;77.20;;;;;;5086614;28;19913;-75
2022/02/11 14:53:14;;;;;;;;;;;11.10;77.60;;;;;;5088236;28;19915;-73
2022/02/11 14:55:40;;;;;;;;;;;11.10;77.80;;;;;;5088212;28;19916;-73
2022/02/11 14:58:05;;;;;;;;;;;11.10;78.00;;;;;;5087814;28;19986;-75
2022/02/11 15:00:31;;;;;;;;;;;11.10;77.80;;;;;;5088082;28;19939;-73
2022/02/11 15:02:57;;;;;;;;;;;11.10;78.10;;;;;;5086969;28;20003;-74
2022/02/11 15:05:23;;;;;;;;;;;11.10;78.20;;;;;;5088517;28;19934;-76
2022/02/11 15:07:49;;;;;;;;;;;11.00;78.20;;;;;;5087357;28;19908;-74
2022/02/11 15:10:15;;;;;;;;;;;10.90;78.60;;;;;;5088071;28;19912;-74
2022/02/11 15:12:40;;;;;;;;;;;11.00;78.70;;;;;;5088061;28;19923;-74
2022/02/11 15:15:06;;;;;;;;;;;11.00;78.90;;;;;;5088162;28;19908;-74
2022/02/11 15:17:32;;;;;;;;;;;11.00;78.90;;;;;;5088355;28;20397;-75
2022/02/11 15:19:57;;;;;;;;;;;10.90;78.80;;;;;;5088175;28;19915;-74
2022/02/11 15:22:23;;;;;;;;;;;10.90;78.50;;;;;;5088103;28;19996;-73
2022/02/11 15:24:50;;;;;;;;;;;10.80;78.60;;;;;;5086372;28;19954;-74
2022/02/11 15:27:17;;;;;;;;;;;10.70;78.60;;;;;;5088140;28;19916;-73
2022/02/11 15:29:42;;;;;;;;;;;10.60;78.80;;;;;;5086704;28;20319;-73
2022/02/11 15:32:09;;;;;;;;;;;10.60;79.00;;;;;;5088499;28;20053;-75
2022/02/11 15:34:35;;;;;;;;;;;10.50;79.00;;;;;;5087370;28;20003;-75
2022/02/11 15:37:00;;;;;;;;;;;10.50;79.10;;;;;;5088195;28;19951;-74
2022/02/11 15:39:26;;;;;;;;;;;10.50;79.10;;;;;;5088852;28;19912;-73
2022/02/11 15:41:51;;;;;;;;;;;10.40;79.30;;;;;;5091464;28;20306;-75
2022/02/11 15:44:17;;;;;;;;;;;10.40;79.30;;;;;;5092517;28;19943;-76
2022/02/11 15:46:42;;;;;;;;;;;10.30;79.30;;;;;;5091174;28;19919;-77
2022/02/11 15:49:08;;;;;;;;;;;10.30;79.30;;;;;;5092281;28;19935;-72
2022/02/11 15:51:34;;;;;;;;;;;10.20;79.50;;;;;;5091812;28;19912;-77
2022/02/11 15:54:00;;;;;;;;;;;10.20;79.80;;;;;;5090857;28;19946;-75
2022/02/11 15:56:25;;;;;;;;;;;10.10;79.90;;;;;;5091416;28;20356;-73
2022/02/11 15:58:51;;;;;;;;;;;10.00;79.90;;;;;;5092550;28;20397;-76
2022/02/11 16:01:18;;;;;;;;;;;10.00;80.20;;;;;;5090006;28;19970;-76
2022/02/11 16:03:44;;;;;;;;;;;9.90;80.40;;;;;;5091835;28;19917;-75
2022/02/11 16:06:10;;;;;;;;;;;9.90;80.40;;;;;;5091387;28;20305;-76
2022/02/11 16:08:35;;;;;;;;;;;9.90;80.70;;;;;;5089095;28;20007;-75
2022/02/11 16:11:02;;;;;;;;;;;9.90;80.90;;;;;;5090369;28;20048;-75
2022/02/11 16:13:30;;;;;;;;;;;9.80;80.90;;;;;;5073945;28;19912;-74
2022/02/11 16:15:56;;;;;;;;;;;9.80;81.10;;;;;;5092661;28;19995;-75
2022/02/11 16:18:24;;;;;;;;;;;9.80;81.10;;;;;;5092649;28;19943;-74
2022/02/11 16:20:55;;;;;;;;;;;9.70;81.00;;;;;;5091116;28;19939;-73
2022/02/11 16:23:23;;;;;;;;;;;9.70;81.20;;;;;;5092030;28;19908;-74
2022/02/11 16:25:49;;;;;;;;;;;9.60;81.30;;;;;;5092408;28;19912;-74
2022/02/11 16:28:16;;;;;;;;;;;9.60;81.30;;;;;;5088400;28;20021;-76
2022/02/11 16:30:42;;;;;;;;;;;9.60;81.50;;;;;;5091737;28;19959;-76
2022/02/11 16:33:07;;;;;;;;;;;9.60;81.60;;;;;;5092056;28;19908;-74
2022/02/11 16:35:34;;;;;;;;;;;9.60;81.80;;;;;;5091612;28;20389;-75
2022/02/11 16:38:01;;;;;;;;;;;9.60;81.60;;;;;;5092117;28;20370;-77
2022/02/11 16:40:27;;;;;;;;;;;9.60;81.50;;;;;;5091058;28;19915;-75
2022/02/11 16:42:53;;;;;;;;;;;9.60;81.60;;;;;;5074154;28;19912;-75
2022/02/11 16:45:19;;;;;;;;;;;9.50;81.70;;;;;;5090314;28;19919;-74
2022/02/11 16:47:45;;;;;;;;;;;9.50;81.90;;;;;;5092052;28;19916;-64
2022/02/11 16:50:11;;;;;;;;;;;9.50;82.00;;;;;;5088864;28;20004;-78
2022/02/11 16:52:37;;;;;;;;;;;9.50;82.30;;;;;;5090402;28;19908;-76
2022/02/11 16:55:03;;;;;;;;;;;9.40;82.70;;;;;;5091252;28;19911;-75
2022/02/11 16:57:29;;;;;;;;;;;9.30;83.00;;;;;;5091318;28;19920;-71
2022/02/11 16:59:54;;;;;;;;;;;9.30;83.30;;;;;;5071703;28;19912;-75
2022/02/11 17:02:23;;;;;;;;;;;9.30;83.60;;;;;;5090863;28;19917;-76
2022/02/11 17:04:49;;;;;;;;;;;9.30;83.90;;;;;;5090745;28;19912;-74
2022/02/11 17:07:18;;;;;;;;;;;9.30;84.10;;;;;;5090144;28;20274;-75
2022/02/11 17:09:43;;;;;;;;;;;9.30;84.20;;;;;;5090617;28;19923;-74
2022/02/11 17:12:09;;;;;;;;;;;9.20;84.50;;;;;;5090977;28;19929;-76
2022/02/11 17:14:35;;;;;;;;;;;9.10;84.50;;;;;;5090976;28;19919;-76
2022/02/11 17:17:00;;;;;;;;;;;9.00;84.60;;;;;;5090988;28;19953;-76
2022/02/11 17:19:26;;;;;;;;;;;8.90;84.60;;;;;;5090380;28;19937;-73
2022/02/11 17:21:52;;;;;;;;;;;8.80;84.80;;;;;;5089966;28;19916;-74
2022/02/11 17:24:18;;;;;;;;;;;8.70;85.00;;;;;;5090864;28;19915;-76
2022/02/11 17:26:45;;;;;;;;;;;8.60;85.10;;;;;;5089513;28;19917;-76
2022/02/11 17:29:10;;;;;;;;;;;8.60;85.40;;;;;;5090462;28;19989;-74
2022/02/11 17:31:37;;;;;;;;;;;8.50;85.50;;;;;;5090087;28;19967;-75
2022/02/11 17:34:02;;;;;;;;;;;8.50;85.90;;;;;;5088960;28;20028;-75
2022/02/11 17:36:29;;;;;;;;;;;8.40;86.00;;;;;;5087807;28;20015;-73
2022/02/11 17:38:55;;;;;;;;;;;8.40;86.20;;;;;;5090258;28;19951;-74
2022/02/11 17:41:23;;;;;;;;;;;8.40;86.50;;;;;;5089878;28;20302;-75
2022/02/11 17:43:52;;;;;;;;;;;8.50;86.80;;;;;;5089951;28;20508;-75
2022/02/11 17:46:19;;;;;;;;;;;8.50;86.90;;;;;;5089200;28;19915;-75
2022/02/11 17:48:44;;;;;;;;;;;8.60;87.00;;;;;;5088400;28;19952;-75
2022/02/11 17:51:10;;;;;;;;;;;8.60;87.00;;;;;;5088725;28;19955;-77
2022/02/11 17:53:36;;;;;;;;;;;8.60;86.90;;;;;;5088411;28;19916;-75
2022/02/11 17:56:02;;;;;;;;;;;8.70;86.90;;;;;;5090207;28;20472;-76
2022/02/11 17:58:28;;;;;;;;;;;8.70;86.90;;;;;;5089678;28;19912;-74
2022/02/11 18:01:00;;;;;;;;;;;8.70;86.90;;;;;;5088357;28;19984;-77
2022/02/11 18:03:26;;;;;;;;;;;8.70;86.80;;;;;;5089168;28;19912;-76
2022/02/11 18:05:52;;;;;;;;;;;8.80;86.80;;;;;;5088351;28;19915;-75
2022/02/11 18:08:17;;;;;;;;;;;8.80;86.50;;;;;;5088209;28;19917;-75
2022/02/11 18:10:43;;;;;;;;;;;8.80;86.70;;;;;;5089865;28;19918;-75
2022/02/11 18:13:11;;;;;;;;;;;8.80;86.80;;;;;;5089969;28;20026;-76